PWSweather.com
Personal Weather Stations
Station Observations
PENICUIKWS
PenicuikGB

PenicuikGB

Lat: 55.830932, Lon: -3.224533000000065

Elevation: 166

Station Type: Fine Offset

http://weather.penicuik.org

High Low Average
Temperature 50.4°F10.2°C 34.9°F1.6°C 42.0°F5.6°C
Dew Point 47.4°F8.6°C 28.7°F-1.8°C 35.5°F1.9°C
Winds 7.4 mph 11.9 kmh 0.8 mph 1.3 kmh 3.0 mph S4.8 kmh S
Wind Gusts 13.0 mph20.9 kmh 1.6 mph2.6 kmh 6.0 mph9.7 kmh
Humidity 91% 58% 78%
Pressure 30.32 in1026.8 mb 29.86 in1011.2 mb -
Precipitation 0.27 in6.9 mm - -
Hour Temp Dew Point Humidity Winds Wind Gusts Pressure Precip Precip Rate Daily Precip Total
12:00 AM 50.4°F10.2°C 46.6°F8.1°C 87% 6.3 mph NW10.1 kmh NW 10.7 mph17.2 kmh 29.86 in1011.2 mb 0.04 in1.0 mm 0.00 in0.0 mm 0.04 in1.0 mm
12:15 AM 50.2°F10.1°C 46.8°F8.2°C 88% 6.3 mph S10.1 kmh S 11.4 mph18.3 kmh 29.87 in1011.5 mb 0.07 in1.8 mm 0.12 in3.0 mm 0.04 in1.0 mm
12:45 AM 50.0°F10.0°C 47.2°F8.4°C 90% 5.7 mph NNE9.2 kmh NNE 12.1 mph19.5 kmh 29.86 in1011.2 mb 0.09 in2.3 mm 0.04 in1.0 mm 0.08 in2.0 mm
01:00 AM 50.2°F10.1°C 47.4°F8.6°C 90% 5.0 mph SE8.0 kmh SE 6.0 mph9.7 kmh 29.87 in1011.5 mb 0.12 in3.0 mm 0.04 in1.0 mm 0.12 in3.0 mm
01:15 AM 50.2°F10.1°C 47.4°F8.6°C 90% 7.0 mph SW11.3 kmh SW 10.7 mph17.2 kmh 29.87 in1011.5 mb 0.13 in3.3 mm 0.04 in1.0 mm 0.17 in4.3 mm
01:45 AM 49.6°F9.8°C 47.1°F8.4°C 91% 5.9 mph N9.5 kmh N 8.3 mph13.4 kmh 29.89 in1012.2 mb 0.12 in3.0 mm 0.00 in0.0 mm 0.20 in5.1 mm
02:00 AM 49.3°F9.6°C 45.6°F7.6°C 87% 7.4 mph SE11.9 kmh SE 13.0 mph20.9 kmh 29.90 in1012.5 mb 0.08 in2.0 mm 0.00 in0.0 mm 0.20 in5.1 mm
02:15 AM 48.9°F9.4°C 44.9°F7.2°C 86% 4.6 mph NNW7.4 kmh NNW 9.2 mph14.8 kmh 29.90 in1012.5 mb 0.05 in1.3 mm 0.00 in0.0 mm 0.21 in5.3 mm
02:30 AM 48.4°F9.1°C 44.7°F7.1°C 87% 4.7 mph SW7.6 kmh SW 9.8 mph15.8 kmh 29.92 in1013.2 mb 0.04 in1.0 mm 0.00 in0.0 mm 0.22 in5.6 mm
02:45 AM 47.1°F8.4°C 43.2°F6.2°C 86% 5.3 mph SSE8.5 kmh SSE 7.6 mph12.2 kmh 29.92 in1013.2 mb 0.04 in1.0 mm 0.00 in0.0 mm 0.24 in6.1 mm
03:15 AM 46.0°F7.8°C 42.1°F5.6°C 86% 5.1 mph NW8.2 kmh NW 9.2 mph14.8 kmh 29.93 in1013.5 mb 0.04 in1.0 mm 0.00 in0.0 mm 0.25 in6.4 mm
03:45 AM 45.5°F7.5°C 41.9°F5.5°C 87% 4.2 mph S6.8 kmh S 8.3 mph13.4 kmh 29.94 in1013.9 mb 0.02 in0.5 mm 0.00 in0.0 mm 0.26 in6.6 mm
04:00 AM 45.3°F7.4°C 41.7°F5.4°C 87% 4.6 mph S7.4 kmh S 6.9 mph11.1 kmh 29.94 in1013.9 mb 0.02 in0.5 mm 0.00 in0.0 mm 0.27 in6.9 mm
04:15 AM 44.8°F7.1°C 40.9°F4.9°C 86% 3.2 mph W5.1 kmh W 4.5 mph7.2 kmh 29.94 in1013.9 mb 0.02 in0.5 mm 0.00 in0.0 mm 0.27 in6.9 mm
04:30 AM 44.6°F7.0°C 40.7°F4.8°C 86% 4.7 mph ESE7.6 kmh ESE 8.3 mph13.4 kmh 29.95 in1014.2 mb 0.01 in0.3 mm 0.00 in0.0 mm 0.27 in6.9 mm
04:45 AM 44.2°F6.8°C 40.3°F4.6°C 86% 4.5 mph ESE7.2 kmh ESE 6.9 mph11.1 kmh 29.95 in1014.2 mb 0.01 in0.3 mm 0.00 in0.0 mm 0.27 in6.9 mm
05:00 AM 44.2°F6.8°C 40.0°F4.4°C 85% 4.3 mph S6.9 kmh S 6.0 mph9.7 kmh 29.95 in1014.2 mb 0.00 in0.0 mm 0.00 in0.0 mm 0.27 in6.9 mm
05:15 AM 44.1°F6.7°C 39.8°F4.3°C 85% 4.7 mph SE7.6 kmh SE 11.4 mph18.3 kmh 29.95 in1014.2 mb 0.00 in0.0 mm 0.00 in0.0 mm 0.27 in6.9 mm
05:45 AM 43.3°F6.3°C 38.8°F3.8°C 84% 3.7 mph SSW6.0 kmh SSW 6.0 mph9.7 kmh 29.97 in1014.9 mb 0.00 in0.0 mm 0.00 in0.0 mm 0.27 in6.9 mm
06:00 AM 43.2°F6.2°C 38.4°F3.6°C 83% 4.2 mph SSE6.8 kmh SSE 6.9 mph11.1 kmh 29.98 in1015.2 mb 0.00 in0.0 mm 0.00 in0.0 mm 0.27 in6.9 mm
06:15 AM 43.2°F6.2°C 37.7°F3.2°C 81% 4.4 mph S7.1 kmh S 8.3 mph13.4 kmh 29.98 in1015.2 mb 0.00 in0.0 mm 0.00 in0.0 mm 0.27 in6.9 mm
06:45 AM 42.4°F5.8°C 37.3°F2.9°C 82% 3.9 mph S6.3 kmh S 8.3 mph13.4 kmh 29.99 in1015.6 mb 0.00 in0.0 mm 0.00 in0.0 mm 0.27 in6.9 mm
07:00 AM 42.3°F5.7°C 37.2°F2.9°C 82% 3.4 mph S5.5 kmh S 6.0 mph9.7 kmh 30.00 in1015.9 mb 0.00 in0.0 mm 0.00 in0.0 mm 0.27 in6.9 mm
07:15 AM 41.9°F5.5°C 36.8°F2.7°C 82% 2.9 mph SW4.7 kmh SW 4.5 mph7.2 kmh 30.00 in1015.9 mb 0.00 in0.0 mm 0.00 in0.0 mm 0.27 in6.9 mm
07:30 AM 41.7°F5.4°C 36.9°F2.7°C 83% 3.5 mph S5.6 kmh S 6.0 mph9.7 kmh 30.01 in1016.3 mb 0.00 in0.0 mm 0.00 in0.0 mm 0.27 in6.9 mm
07:45 AM 41.5°F5.3°C 36.8°F2.7°C 83% 3.5 mph SW5.6 kmh SW 6.9 mph11.1 kmh 30.02 in1016.6 mb 0.00 in0.0 mm 0.00 in0.0 mm 0.27 in6.9 mm
08:00 AM 41.4°F5.2°C 36.3°F2.4°C 82% 2.8 mph S4.5 kmh S 4.5 mph7.2 kmh 30.02 in1016.6 mb 0.00 in0.0 mm 0.00 in0.0 mm 0.27 in6.9 mm
08:15 AM 41.4°F5.2°C 36.3°F2.4°C 82% 4.5 mph S7.2 kmh S 8.3 mph13.4 kmh 30.03 in1016.9 mb 0.00 in0.0 mm 0.00 in0.0 mm 0.27 in6.9 mm
08:30 AM 41.2°F5.1°C 36.1°F2.3°C 82% 3.2 mph SSW5.1 kmh SSW 5.4 mph8.7 kmh 30.04 in1017.3 mb 0.00 in0.0 mm 0.00 in0.0 mm 0.27 in6.9 mm
08:45 AM 41.2°F5.1°C 36.1°F2.3°C 82% 2.6 mph S4.2 kmh S 4.5 mph7.2 kmh 30.05 in1017.6 mb 0.00 in0.0 mm 0.00 in0.0 mm 0.27 in6.9 mm
09:00 AM 41.5°F5.3°C 35.8°F2.1°C 80% 3.0 mph SE4.8 kmh SE 3.8 mph6.1 kmh 30.06 in1017.9 mb 0.00 in0.0 mm 0.00 in0.0 mm 0.27 in6.9 mm
09:15 AM 41.2°F5.1°C 35.5°F1.9°C 80% 3.8 mph S6.1 kmh S 6.9 mph11.1 kmh 30.07 in1018.3 mb 0.00 in0.0 mm 0.00 in0.0 mm 0.27 in6.9 mm
09:30 AM 41.2°F5.1°C 35.5°F1.9°C 80% 2.7 mph SW4.3 kmh SW 3.8 mph6.1 kmh 30.08 in1018.6 mb 0.00 in0.0 mm 0.00 in0.0 mm 0.27 in6.9 mm
09:45 AM 45.3°F7.4°C 38.2°F3.4°C 76% 2.9 mph SSE4.7 kmh SSE 4.5 mph7.2 kmh 30.08 in1018.6 mb 0.00 in0.0 mm 0.00 in0.0 mm 0.27 in6.9 mm
10:00 AM 43.3°F6.3°C 35.3°F1.8°C 73% 2.1 mph ESE3.4 kmh ESE 3.8 mph6.1 kmh 30.09 in1019.0 mb 0.00 in0.0 mm 0.00 in0.0 mm 0.27 in6.9 mm
10:15 AM 42.8°F6.0°C 35.8°F2.1°C 76% 3.2 mph SSW5.1 kmh SSW 9.2 mph14.8 kmh 30.10 in1019.3 mb 0.00 in0.0 mm 0.00 in0.0 mm 0.27 in6.9 mm
10:45 AM 47.7°F8.7°C 39.1°F3.9°C 72% 3.1 mph SSE5.0 kmh SSE 5.4 mph8.7 kmh 30.11 in1019.6 mb 0.00 in0.0 mm 0.00 in0.0 mm 0.27 in6.9 mm
11:15 AM 44.8°F7.1°C 33.7°F0.9°C 65% 3.3 mph SE5.3 kmh SE 6.0 mph9.7 kmh 30.11 in1019.6 mb 0.00 in0.0 mm 0.00 in0.0 mm 0.27 in6.9 mm
11:30 AM 46.9°F8.3°C 35.8°F2.1°C 65% 4.8 mph E7.7 kmh E 8.3 mph13.4 kmh 30.11 in1019.6 mb 0.00 in0.0 mm 0.00 in0.0 mm 0.27 in6.9 mm
11:45 AM 48.2°F9.0°C 36.2°F2.3°C 63% 3.7 mph SW6.0 kmh SW 6.9 mph11.1 kmh 30.12 in1020.0 mb 0.00 in0.0 mm 0.00 in0.0 mm 0.27 in6.9 mm
12:00 PM 47.8°F8.8°C 35.5°F1.9°C 62% 5.0 mph E8.0 kmh E 10.7 mph17.2 kmh 30.13 in1020.3 mb 0.00 in0.0 mm 0.00 in0.0 mm 0.27 in6.9 mm
12:15 PM 49.6°F9.8°C 35.5°F1.9°C 58% 4.6 mph NNW7.4 kmh NNW 8.3 mph13.4 kmh 30.13 in1020.3 mb 0.00 in0.0 mm 0.00 in0.0 mm 0.27 in6.9 mm
12:30 PM 46.0°F7.8°C 32.5°F0.3°C 59% 3.8 mph SSE6.1 kmh SSE 7.6 mph12.2 kmh 30.15 in1021.0 mb 0.00 in0.0 mm 0.00 in0.0 mm 0.27 in6.9 mm
12:45 PM 44.4°F6.9°C 32.6°F0.3°C 63% 3.8 mph E6.1 kmh E 6.9 mph11.1 kmh 30.14 in1020.7 mb 0.00 in0.0 mm 0.00 in0.0 mm 0.27 in6.9 mm
01:00 PM 44.2°F6.8°C 33.6°F0.9°C 66% 3.4 mph SE5.5 kmh SE 5.4 mph8.7 kmh 30.15 in1021.0 mb 0.00 in0.0 mm 0.00 in0.0 mm 0.27 in6.9 mm
01:15 PM 43.5°F6.4°C 33.3°F0.7°C 67% 3.7 mph SSE6.0 kmh SSE 6.0 mph9.7 kmh 30.16 in1021.3 mb 0.00 in0.0 mm 0.00 in0.0 mm 0.27 in6.9 mm
01:30 PM 42.8°F6.0°C 31.9°F-0.1°C 65% 3.6 mph S5.8 kmh S 5.4 mph8.7 kmh 30.16 in1021.3 mb 0.00 in0.0 mm 0.00 in0.0 mm 0.27 in6.9 mm
01:45 PM 42.6°F5.9°C 32.4°F0.2°C 67% 3.8 mph S6.1 kmh S 6.0 mph9.7 kmh 30.16 in1021.3 mb 0.00 in0.0 mm 0.00 in0.0 mm 0.27 in6.9 mm
02:00 PM 42.4°F5.8°C 33.4°F0.8°C 70% 3.0 mph ESE4.8 kmh ESE 4.5 mph7.2 kmh 30.16 in1021.3 mb 0.00 in0.0 mm 0.00 in0.0 mm 0.27 in6.9 mm
02:15 PM 42.8°F6.0°C 33.7°F0.9°C 70% 2.3 mph E3.7 kmh E 3.8 mph6.1 kmh 30.17 in1021.7 mb 0.00 in0.0 mm 0.00 in0.0 mm 0.27 in6.9 mm
02:30 PM 42.1°F5.6°C 33.4°F0.8°C 71% 3.7 mph E6.0 kmh E 9.2 mph14.8 kmh 30.18 in1022.0 mb 0.00 in0.0 mm 0.00 in0.0 mm 0.27 in6.9 mm
03:00 PM 41.7°F5.4°C 32.7°F0.4°C 70% 4.1 mph E6.6 kmh E 6.9 mph11.1 kmh 30.18 in1022.0 mb 0.00 in0.0 mm 0.00 in0.0 mm 0.27 in6.9 mm
03:15 PM 41.5°F5.3°C 32.5°F0.3°C 70% 3.1 mph NE5.0 kmh NE 4.5 mph7.2 kmh 30.18 in1022.0 mb 0.00 in0.0 mm 0.00 in0.0 mm 0.27 in6.9 mm
03:30 PM 41.5°F5.3°C 32.5°F0.3°C 70% 3.1 mph SW5.0 kmh SW 4.5 mph7.2 kmh 30.20 in1022.7 mb 0.00 in0.0 mm 0.00 in0.0 mm 0.27 in6.9 mm
03:45 PM 41.2°F5.1°C 32.2°F0.1°C 70% 2.8 mph NE4.5 kmh NE 3.8 mph6.1 kmh 30.20 in1022.7 mb 0.00 in0.0 mm 0.00 in0.0 mm 0.27 in6.9 mm
04:00 PM 41.0°F5.0°C 32.0°F0.0°C 70% 2.3 mph ENE3.7 kmh ENE 3.8 mph6.1 kmh 30.21 in1023.0 mb 0.00 in0.0 mm 0.00 in0.0 mm 0.27 in6.9 mm
04:15 PM 40.1°F4.5°C 31.8°F-0.1°C 72% 2.2 mph S3.5 kmh S 3.1 mph5.0 kmh 30.21 in1023.0 mb 0.00 in0.0 mm 0.00 in0.0 mm 0.27 in6.9 mm
04:30 PM 39.2°F4.0°C 31.3°F-0.4°C 73% 3.1 mph S5.0 kmh S 4.5 mph7.2 kmh 30.22 in1023.4 mb 0.00 in0.0 mm 0.00 in0.0 mm 0.27 in6.9 mm
04:45 PM 39.2°F4.0°C 30.9°F-0.6°C 72% 2.8 mph SSE4.5 kmh SSE 3.8 mph6.1 kmh 30.22 in1023.4 mb 0.00 in0.0 mm 0.00 in0.0 mm 0.27 in6.9 mm
05:00 PM 39.2°F4.0°C 30.6°F-0.8°C 71% 3.6 mph S5.8 kmh S 5.4 mph8.7 kmh 30.23 in1023.7 mb 0.00 in0.0 mm 0.00 in0.0 mm 0.27 in6.9 mm
05:15 PM 38.8°F3.8°C 30.6°F-0.8°C 72% 3.1 mph S5.0 kmh S 5.4 mph8.7 kmh 30.23 in1023.7 mb 0.00 in0.0 mm 0.00 in0.0 mm 0.27 in6.9 mm
05:30 PM 39.2°F4.0°C 30.6°F-0.8°C 71% 3.6 mph SSW5.8 kmh SSW 6.9 mph11.1 kmh 30.23 in1023.7 mb 0.00 in0.0 mm 0.00 in0.0 mm 0.27 in6.9 mm
06:00 PM 37.4°F3.0°C 29.9°F-1.2°C 74% 1.8 mph SW2.9 kmh SW 3.8 mph6.1 kmh 30.25 in1024.4 mb 0.00 in0.0 mm 0.00 in0.0 mm 0.27 in6.9 mm
06:15 PM 36.7°F2.6°C 28.9°F-1.7°C 73% 1.4 mph W2.3 kmh W 2.2 mph3.5 kmh 30.25 in1024.4 mb 0.00 in0.0 mm 0.00 in0.0 mm 0.27 in6.9 mm
06:30 PM 36.1°F2.3°C 28.7°F-1.8°C 74% 3.0 mph WNW4.8 kmh WNW 4.5 mph7.2 kmh 30.27 in1025.1 mb 0.00 in0.0 mm 0.00 in0.0 mm 0.27 in6.9 mm
06:45 PM 35.6°F2.0°C 28.8°F-1.8°C 76% 1.3 mph WSW2.1 kmh WSW 3.1 mph5.0 kmh 30.27 in1025.1 mb 0.00 in0.0 mm 0.00 in0.0 mm 0.27 in6.9 mm
07:00 PM 35.6°F2.0°C 29.1°F-1.6°C 77% 2.2 mph SW3.5 kmh SW 4.5 mph7.2 kmh 30.27 in1025.1 mb 0.00 in0.0 mm 0.00 in0.0 mm 0.27 in6.9 mm
07:30 PM 36.1°F2.3°C 30.3°F-0.9°C 79% 2.3 mph SW3.7 kmh SW 4.5 mph7.2 kmh 30.28 in1025.4 mb 0.00 in0.0 mm 0.00 in0.0 mm 0.27 in6.9 mm
08:00 PM 36.1°F2.3°C 29.6°F-1.3°C 77% 1.4 mph W2.3 kmh W 1.6 mph2.6 kmh 30.29 in1025.7 mb 0.00 in0.0 mm 0.00 in0.0 mm 0.27 in6.9 mm
08:15 PM 35.8°F2.1°C 29.6°F-1.3°C 78% 1.4 mph WSW2.3 kmh WSW 2.2 mph3.5 kmh 30.30 in1026.1 mb 0.00 in0.0 mm 0.00 in0.0 mm 0.27 in6.9 mm
08:30 PM 35.6°F2.0°C 29.4°F-1.4°C 78% 1.3 mph W2.1 kmh W 3.1 mph5.0 kmh 30.30 in1026.1 mb 0.00 in0.0 mm 0.00 in0.0 mm 0.27 in6.9 mm
08:45 PM 35.4°F1.9°C 29.9°F-1.2°C 80% 1.7 mph WSW2.7 kmh WSW 3.1 mph5.0 kmh 30.30 in1026.1 mb 0.00 in0.0 mm 0.00 in0.0 mm 0.27 in6.9 mm
09:00 PM 35.2°F1.8°C 29.7°F-1.3°C 80% 1.9 mph WNW3.1 kmh WNW 3.1 mph5.0 kmh 30.31 in1026.4 mb 0.00 in0.0 mm 0.00 in0.0 mm 0.27 in6.9 mm
09:15 PM 35.4°F1.9°C 30.2°F-1.0°C 81% 2.4 mph SW3.9 kmh SW 5.4 mph8.7 kmh 30.31 in1026.4 mb 0.00 in0.0 mm 0.00 in0.0 mm 0.27 in6.9 mm
09:30 PM 36.1°F2.3°C 30.9°F-0.6°C 81% 2.5 mph SSW4.0 kmh SSW 5.4 mph8.7 kmh 30.30 in1026.1 mb 0.00 in0.0 mm 0.00 in0.0 mm 0.27 in6.9 mm
09:45 PM 35.6°F2.0°C 30.4°F-0.9°C 81% 1.4 mph W2.3 kmh W 2.2 mph3.5 kmh 30.31 in1026.4 mb 0.00 in0.0 mm 0.00 in0.0 mm 0.27 in6.9 mm
10:00 PM 35.8°F2.1°C 30.5°F-0.8°C 81% 2.7 mph NNW4.3 kmh NNW 4.5 mph7.2 kmh 30.30 in1026.1 mb 0.00 in0.0 mm 0.00 in0.0 mm 0.27 in6.9 mm
10:15 PM 36.0°F2.2°C 31.0°F-0.6°C 82% 2.4 mph NW3.9 kmh NW 6.9 mph11.1 kmh 30.30 in1026.1 mb 0.00 in0.0 mm 0.00 in0.0 mm 0.27 in6.9 mm
10:45 PM 35.2°F1.8°C 30.3°F-0.9°C 82% 0.8 mph WSW1.3 kmh WSW 1.6 mph2.6 kmh 30.32 in1026.8 mb 0.00 in0.0 mm 0.00 in0.0 mm 0.27 in6.9 mm
11:00 PM 34.9°F1.6°C 30.0°F-1.1°C 82% 1.5 mph W2.4 kmh W 1.6 mph2.6 kmh 30.31 in1026.4 mb 0.00 in0.0 mm 0.00 in0.0 mm 0.27 in6.9 mm
11:30 PM 35.8°F2.1°C 31.1°F-0.5°C 83% 1.8 mph WNW2.9 kmh WNW 4.5 mph7.2 kmh 30.30 in1026.1 mb 0.00 in0.0 mm 0.00 in0.0 mm 0.27 in6.9 mm
11:45 PM 36.0°F2.2°C 31.3°F-0.4°C 83% 1.9 mph WSW3.1 kmh WSW 5.4 mph8.7 kmh 30.30 in1026.1 mb 0.00 in0.0 mm 0.00 in0.0 mm 0.27 in6.9 mm